sensor_id;sensor_type;location;lat;lon;timestamp;P1;durP1;ratioP1;P2;durP2;ratioP2
2011;SDS011;1009;51.436;6.972;2023-08-17T00:02:14;7.77;;;5.23;;
2011;SDS011;1009;51.436;6.972;2023-08-17T00:04:41;7.50;;;5.57;;
2011;SDS011;1009;51.436;6.972;2023-08-17T00:07:08;10.53;;;4.97;;
2011;SDS011;1009;51.436;6.972;2023-08-17T00:09:34;10.20;;;5.53;;
2011;SDS011;1009;51.436;6.972;2023-08-17T00:12:01;8.77;;;6.30;;
2011;SDS011;1009;51.436;6.972;2023-08-17T00:14:30;11.53;;;6.57;;
2011;SDS011;1009;51.436;6.972;2023-08-17T00:16:56;6.00;;;5.07;;
2011;SDS011;1009;51.436;6.972;2023-08-17T00:19:23;8.13;;;6.23;;
2011;SDS011;1009;51.436;6.972;2023-08-17T00:21:50;9.93;;;5.37;;
2011;SDS011;1009;51.436;6.972;2023-08-17T00:24:18;10.00;;;5.60;;
2011;SDS011;1009;51.436;6.972;2023-08-17T00:26:45;5.60;;;5.10;;
2011;SDS011;1009;51.436;6.972;2023-08-17T00:29:11;6.97;;;5.67;;
2011;SDS011;1009;51.436;6.972;2023-08-17T00:31:41;6.80;;;5.13;;
2011;SDS011;1009;51.436;6.972;2023-08-17T00:34:08;5.87;;;4.97;;
2011;SDS011;1009;51.436;6.972;2023-08-17T00:36:34;11.17;;;5.77;;
2011;SDS011;1009;51.436;6.972;2023-08-17T00:39:01;7.77;;;5.50;;
2011;SDS011;1009;51.436;6.972;2023-08-17T00:41:28;7.13;;;5.30;;
2011;SDS011;1009;51.436;6.972;2023-08-17T00:43:55;17.20;;;6.30;;
2011;SDS011;1009;51.436;6.972;2023-08-17T00:46:22;6.53;;;5.77;;
2011;SDS011;1009;51.436;6.972;2023-08-17T00:48:51;9.33;;;5.03;;
2011;SDS011;1009;51.436;6.972;2023-08-17T00:51:20;10.57;;;4.90;;
2011;SDS011;1009;51.436;6.972;2023-08-17T00:53:48;7.50;;;6.00;;
2011;SDS011;1009;51.436;6.972;2023-08-17T00:56:16;8.50;;;5.87;;
2011;SDS011;1009;51.436;6.972;2023-08-17T00:58:43;8.77;;;6.47;;
2011;SDS011;1009;51.436;6.972;2023-08-17T01:01:10;7.83;;;5.33;;
2011;SDS011;1009;51.436;6.972;2023-08-17T01:03:37;10.20;;;6.70;;
2011;SDS011;1009;51.436;6.972;2023-08-17T01:06:08;7.43;;;5.93;;
2011;SDS011;1009;51.436;6.972;2023-08-17T01:08:35;10.60;;;5.97;;
2011;SDS011;1009;51.436;6.972;2023-08-17T01:11:04;8.50;;;6.30;;
2011;SDS011;1009;51.436;6.972;2023-08-17T01:13:42;12.40;;;6.50;;
2011;SDS011;1009;51.436;6.972;2023-08-17T01:16:12;7.93;;;6.17;;
2011;SDS011;1009;51.436;6.972;2023-08-17T01:18:42;10.70;;;7.37;;
2011;SDS011;1009;51.436;6.972;2023-08-17T01:21:11;10.40;;;7.10;;
2011;SDS011;1009;51.436;6.972;2023-08-17T01:23:45;8.53;;;6.70;;
2011;SDS011;1009;51.436;6.972;2023-08-17T01:26:12;18.53;;;8.27;;
2011;SDS011;1009;51.436;6.972;2023-08-17T01:28:40;10.70;;;7.83;;
2011;SDS011;1009;51.436;6.972;2023-08-17T01:31:08;20.43;;;7.47;;
2011;SDS011;1009;51.436;6.972;2023-08-17T01:33:40;10.10;;;7.07;;
2011;SDS011;1009;51.436;6.972;2023-08-17T01:36:13;9.70;;;7.60;;
2011;SDS011;1009;51.436;6.972;2023-08-17T01:38:47;13.07;;;7.27;;
2011;SDS011;1009;51.436;6.972;2023-08-17T01:41:17;9.70;;;7.13;;
2011;SDS011;1009;51.436;6.972;2023-08-17T01:43:45;13.17;;;7.40;;
2011;SDS011;1009;51.436;6.972;2023-08-17T01:46:13;7.70;;;6.50;;
2011;SDS011;1009;51.436;6.972;2023-08-17T01:48:41;8.63;;;6.67;;
2011;SDS011;1009;51.436;6.972;2023-08-17T01:51:08;9.40;;;6.40;;
2011;SDS011;1009;51.436;6.972;2023-08-17T01:53:35;9.57;;;6.77;;
2011;SDS011;1009;51.436;6.972;2023-08-17T01:56:03;10.70;;;5.83;;
2011;SDS011;1009;51.436;6.972;2023-08-17T01:58:30;7.17;;;6.47;;
2011;SDS011;1009;51.436;6.972;2023-08-17T02:00:57;10.10;;;6.70;;
2011;SDS011;1009;51.436;6.972;2023-08-17T02:03:24;7.13;;;5.50;;
2011;SDS011;1009;51.436;6.972;2023-08-17T02:05:50;6.50;;;5.03;;
2011;SDS011;1009;51.436;6.972;2023-08-17T02:08:17;10.70;;;6.00;;
2011;SDS011;1009;51.436;6.972;2023-08-17T02:10:44;7.33;;;5.40;;
2011;SDS011;1009;51.436;6.972;2023-08-17T02:13:12;7.67;;;5.23;;
2011;SDS011;1009;51.436;6.972;2023-08-17T02:15:40;7.07;;;5.80;;
2011;SDS011;1009;51.436;6.972;2023-08-17T02:18:10;11.30;;;5.77;;
2011;SDS011;1009;51.436;6.972;2023-08-17T02:20:37;13.50;;;6.00;;
2011;SDS011;1009;51.436;6.972;2023-08-17T02:23:03;7.67;;;6.03;;
2011;SDS011;1009;51.436;6.972;2023-08-17T02:25:30;12.20;;;5.90;;
2011;SDS011;1009;51.436;6.972;2023-08-17T02:28:00;10.13;;;6.17;;
2011;SDS011;1009;51.436;6.972;2023-08-17T02:30:28;7.53;;;6.27;;
2011;SDS011;1009;51.436;6.972;2023-08-17T02:32:55;7.37;;;5.90;;
2011;SDS011;1009;51.436;6.972;2023-08-17T02:35:22;9.23;;;6.20;;
2011;SDS011;1009;51.436;6.972;2023-08-17T02:37:49;10.17;;;6.40;;
2011;SDS011;1009;51.436;6.972;2023-08-17T02:40:16;10.13;;;6.90;;
2011;SDS011;1009;51.436;6.972;2023-08-17T02:42:43;9.70;;;7.20;;
2011;SDS011;1009;51.436;6.972;2023-08-17T02:45:09;10.87;;;6.90;;
2011;SDS011;1009;51.436;6.972;2023-08-17T02:47:38;9.93;;;6.47;;
2011;SDS011;1009;51.436;6.972;2023-08-17T02:50:05;10.27;;;6.83;;
2011;SDS011;1009;51.436;6.972;2023-08-17T02:52:33;11.80;;;6.17;;
2011;SDS011;1009;51.436;6.972;2023-08-17T02:54:59;10.70;;;7.00;;
2011;SDS011;1009;51.436;6.972;2023-08-17T02:57:26;10.70;;;8.00;;
2011;SDS011;1009;51.436;6.972;2023-08-17T02:59:53;11.40;;;8.53;;
2011;SDS011;1009;51.436;6.972;2023-08-17T03:02:20;12.10;;;9.00;;
2011;SDS011;1009;51.436;6.972;2023-08-17T03:04:48;10.57;;;9.10;;
2011;SDS011;1009;51.436;6.972;2023-08-17T03:07:14;11.87;;;8.77;;
2011;SDS011;1009;51.436;6.972;2023-08-17T03:09:41;14.83;;;9.50;;
2011;SDS011;1009;51.436;6.972;2023-08-17T03:12:08;15.67;;;9.20;;
2011;SDS011;1009;51.436;6.972;2023-08-17T03:14:35;11.20;;;8.00;;
2011;SDS011;1009;51.436;6.972;2023-08-17T03:17:01;12.53;;;7.43;;
2011;SDS011;1009;51.436;6.972;2023-08-17T03:19:28;9.20;;;7.37;;
2011;SDS011;1009;51.436;6.972;2023-08-17T03:21:57;11.00;;;7.20;;
2011;SDS011;1009;51.436;6.972;2023-08-17T03:24:23;10.70;;;5.60;;
2011;SDS011;1009;51.436;6.972;2023-08-17T03:26:50;8.57;;;6.60;;
2011;SDS011;1009;51.436;6.972;2023-08-17T03:29:17;12.50;;;8.70;;
2011;SDS011;1009;51.436;6.972;2023-08-17T03:31:43;10.90;;;7.47;;
2011;SDS011;1009;51.436;6.972;2023-08-17T03:34:11;15.80;;;6.90;;
2011;SDS011;1009;51.436;6.972;2023-08-17T03:36:37;9.07;;;7.30;;
2011;SDS011;1009;51.436;6.972;2023-08-17T03:39:05;9.63;;;7.43;;
2011;SDS011;1009;51.436;6.972;2023-08-17T03:41:32;14.17;;;7.83;;
2011;SDS011;1009;51.436;6.972;2023-08-17T03:44:01;12.93;;;9.07;;
2011;SDS011;1009;51.436;6.972;2023-08-17T03:46:28;16.33;;;8.20;;
2011;SDS011;1009;51.436;6.972;2023-08-17T03:48:55;9.50;;;7.60;;
2011;SDS011;1009;51.436;6.972;2023-08-17T03:51:22;10.97;;;8.20;;
2011;SDS011;1009;51.436;6.972;2023-08-17T03:53:49;10.70;;;8.10;;
2011;SDS011;1009;51.436;6.972;2023-08-17T03:56:17;13.03;;;7.83;;
2011;SDS011;1009;51.436;6.972;2023-08-17T03:58:44;15.60;;;8.80;;
2011;SDS011;1009;51.436;6.972;2023-08-17T04:01:10;14.13;;;8.40;;
2011;SDS011;1009;51.436;6.972;2023-08-17T04:03:38;11.70;;;6.90;;
2011;SDS011;1009;51.436;6.972;2023-08-17T04:06:05;9.67;;;6.57;;
2011;SDS011;1009;51.436;6.972;2023-08-17T04:08:32;9.50;;;6.30;;
2011;SDS011;1009;51.436;6.972;2023-08-17T04:10:59;15.23;;;7.07;;
2011;SDS011;1009;51.436;6.972;2023-08-17T04:13:27;9.50;;;6.10;;
2011;SDS011;1009;51.436;6.972;2023-08-17T04:15:54;9.40;;;6.33;;
2011;SDS011;1009;51.436;6.972;2023-08-17T04:18:20;9.20;;;6.03;;
2011;SDS011;1009;51.436;6.972;2023-08-17T04:20:47;18.50;;;6.10;;
2011;SDS011;1009;51.436;6.972;2023-08-17T04:23:14;7.87;;;5.60;;
2011;SDS011;1009;51.436;6.972;2023-08-17T04:25:41;10.47;;;6.40;;
2011;SDS011;1009;51.436;6.972;2023-08-17T04:28:09;8.83;;;7.93;;
2011;SDS011;1009;51.436;6.972;2023-08-17T04:30:38;11.87;;;6.20;;
2011;SDS011;1009;51.436;6.972;2023-08-17T04:33:05;8.80;;;7.00;;
2011;SDS011;1009;51.436;6.972;2023-08-17T04:35:32;7.87;;;6.10;;
2011;SDS011;1009;51.436;6.972;2023-08-17T04:37:59;10.30;;;7.40;;
2011;SDS011;1009;51.436;6.972;2023-08-17T04:40:26;12.10;;;7.90;;
2011;SDS011;1009;51.436;6.972;2023-08-17T04:42:53;15.83;;;8.17;;
2011;SDS011;1009;51.436;6.972;2023-08-17T04:45:20;12.67;;;8.50;;
2011;SDS011;1009;51.436;6.972;2023-08-17T04:47:48;14.53;;;7.47;;
2011;SDS011;1009;51.436;6.972;2023-08-17T04:50:15;11.70;;;9.00;;
2011;SDS011;1009;51.436;6.972;2023-08-17T04:52:42;10.20;;;8.03;;
2011;SDS011;1009;51.436;6.972;2023-08-17T04:55:09;11.03;;;8.30;;
2011;SDS011;1009;51.436;6.972;2023-08-17T04:57:36;15.73;;;8.23;;
2011;SDS011;1009;51.436;6.972;2023-08-17T05:00:03;11.07;;;7.60;;
2011;SDS011;1009;51.436;6.972;2023-08-17T05:02:34;11.73;;;7.87;;
2011;SDS011;1009;51.436;6.972;2023-08-17T05:05:03;12.20;;;7.57;;
2011;SDS011;1009;51.436;6.972;2023-08-17T05:07:31;14.70;;;7.83;;
2011;SDS011;1009;51.436;6.972;2023-08-17T05:09:57;14.63;;;8.13;;
2011;SDS011;1009;51.436;6.972;2023-08-17T05:12:24;11.40;;;8.17;;
2011;SDS011;1009;51.436;6.972;2023-08-17T05:14:51;15.50;;;8.13;;
2011;SDS011;1009;51.436;6.972;2023-08-17T05:17:18;16.47;;;8.40;;
2011;SDS011;1009;51.436;6.972;2023-08-17T05:19:44;8.67;;;6.23;;
2011;SDS011;1009;51.436;6.972;2023-08-17T05:22:12;14.70;;;8.50;;
2011;SDS011;1009;51.436;6.972;2023-08-17T05:24:39;12.97;;;7.90;;
2011;SDS011;1009;51.436;6.972;2023-08-17T05:27:06;13.97;;;8.70;;
2011;SDS011;1009;51.436;6.972;2023-08-17T05:29:34;12.93;;;9.10;;
2011;SDS011;1009;51.436;6.972;2023-08-17T05:32:00;10.93;;;8.27;;
2011;SDS011;1009;51.436;6.972;2023-08-17T05:34:28;11.33;;;8.30;;
2011;SDS011;1009;51.436;6.972;2023-08-17T05:36:54;11.80;;;9.03;;
2011;SDS011;1009;51.436;6.972;2023-08-17T05:39:22;13.93;;;8.57;;
2011;SDS011;1009;51.436;6.972;2023-08-17T05:41:49;12.83;;;8.60;;
2011;SDS011;1009;51.436;6.972;2023-08-17T05:44:16;15.40;;;8.90;;
2011;SDS011;1009;51.436;6.972;2023-08-17T05:46:43;17.40;;;8.87;;
2011;SDS011;1009;51.436;6.972;2023-08-17T05:49:10;18.50;;;9.63;;
2011;SDS011;1009;51.436;6.972;2023-08-17T05:51:37;17.03;;;8.10;;
2011;SDS011;1009;51.436;6.972;2023-08-17T05:54:04;11.03;;;7.90;;
2011;SDS011;1009;51.436;6.972;2023-08-17T05:56:32;11.77;;;7.77;;
2011;SDS011;1009;51.436;6.972;2023-08-17T05:58:59;15.23;;;8.00;;
2011;SDS011;1009;51.436;6.972;2023-08-17T06:01:26;17.90;;;8.20;;
2011;SDS011;1009;51.436;6.972;2023-08-17T06:03:52;13.93;;;8.40;;
2011;SDS011;1009;51.436;6.972;2023-08-17T06:06:19;11.80;;;8.37;;
2011;SDS011;1009;51.436;6.972;2023-08-17T06:08:46;14.37;;;7.80;;
2011;SDS011;1009;51.436;6.972;2023-08-17T06:11:13;17.60;;;9.67;;
2011;SDS011;1009;51.436;6.972;2023-08-17T06:13:41;12.43;;;8.27;;
2011;SDS011;1009;51.436;6.972;2023-08-17T06:16:08;20.67;;;12.33;;
2011;SDS011;1009;51.436;6.972;2023-08-17T06:18:35;15.57;;;9.67;;
2011;SDS011;1009;51.436;6.972;2023-08-17T06:21:03;13.17;;;8.47;;
2011;SDS011;1009;51.436;6.972;2023-08-17T06:23:30;15.10;;;9.30;;
2011;SDS011;1009;51.436;6.972;2023-08-17T06:25:57;24.60;;;9.83;;
2011;SDS011;1009;51.436;6.972;2023-08-17T06:28:24;15.43;;;9.37;;
2011;SDS011;1009;51.436;6.972;2023-08-17T06:30:52;14.20;;;9.00;;
2011;SDS011;1009;51.436;6.972;2023-08-17T06:33:20;17.47;;;10.03;;
2011;SDS011;1009;51.436;6.972;2023-08-17T06:35:47;20.77;;;10.33;;
2011;SDS011;1009;51.436;6.972;2023-08-17T06:38:14;15.43;;;8.70;;
2011;SDS011;1009;51.436;6.972;2023-08-17T06:40:41;14.43;;;9.90;;
2011;SDS011;1009;51.436;6.972;2023-08-17T06:43:08;17.20;;;10.90;;
2011;SDS011;1009;51.436;6.972;2023-08-17T06:45:35;16.57;;;10.73;;
2011;SDS011;1009;51.436;6.972;2023-08-17T06:48:03;19.80;;;10.20;;
2011;SDS011;1009;51.436;6.972;2023-08-17T06:50:30;25.90;;;10.53;;
2011;SDS011;1009;51.436;6.972;2023-08-17T06:52:57;14.50;;;10.10;;
2011;SDS011;1009;51.436;6.972;2023-08-17T06:55:24;22.47;;;9.93;;
2011;SDS011;1009;51.436;6.972;2023-08-17T06:57:50;19.13;;;10.53;;
2011;SDS011;1009;51.436;6.972;2023-08-17T07:00:17;23.70;;;12.83;;
2011;SDS011;1009;51.436;6.972;2023-08-17T07:02:45;21.33;;;12.70;;
2011;SDS011;1009;51.436;6.972;2023-08-17T07:05:13;17.77;;;11.90;;
2011;SDS011;1009;51.436;6.972;2023-08-17T07:07:40;20.43;;;13.00;;
2011;SDS011;1009;51.436;6.972;2023-08-17T07:10:08;25.90;;;12.73;;
2011;SDS011;1009;51.436;6.972;2023-08-17T07:12:35;22.20;;;12.23;;
2011;SDS011;1009;51.436;6.972;2023-08-17T07:15:02;21.83;;;12.73;;
2011;SDS011;1009;51.436;6.972;2023-08-17T07:17:29;24.60;;;12.70;;
2011;SDS011;1009;51.436;6.972;2023-08-17T07:19:56;25.40;;;12.90;;
2011;SDS011;1009;51.436;6.972;2023-08-17T07:22:24;22.20;;;12.77;;
2011;SDS011;1009;51.436;6.972;2023-08-17T07:24:51;18.73;;;12.37;;
2011;SDS011;1009;51.436;6.972;2023-08-17T07:27:18;22.53;;;13.10;;
2011;SDS011;1009;51.436;6.972;2023-08-17T07:29:44;29.93;;;15.23;;
2011;SDS011;1009;51.436;6.972;2023-08-17T07:32:11;23.90;;;14.03;;
2011;SDS011;1009;51.436;6.972;2023-08-17T07:34:38;22.73;;;12.70;;
2011;SDS011;1009;51.436;6.972;2023-08-17T07:37:05;26.17;;;12.50;;
2011;SDS011;1009;51.436;6.972;2023-08-17T07:39:33;25.53;;;14.93;;
2011;SDS011;1009;51.436;6.972;2023-08-17T07:42:00;27.97;;;15.07;;
2011;SDS011;1009;51.436;6.972;2023-08-17T07:44:27;24.50;;;15.70;;
2011;SDS011;1009;51.436;6.972;2023-08-17T07:46:56;26.20;;;14.13;;
2011;SDS011;1009;51.436;6.972;2023-08-17T07:49:24;23.30;;;13.70;;
2011;SDS011;1009;51.436;6.972;2023-08-17T07:51:51;27.90;;;14.60;;
2011;SDS011;1009;51.436;6.972;2023-08-17T07:54:17;24.03;;;13.60;;
2011;SDS011;1009;51.436;6.972;2023-08-17T07:56:45;24.50;;;13.03;;
2011;SDS011;1009;51.436;6.972;2023-08-17T07:59:12;25.80;;;13.93;;
2011;SDS011;1009;51.436;6.972;2023-08-17T08:01:39;21.57;;;10.43;;
2011;SDS011;1009;51.436;6.972;2023-08-17T08:04:07;22.47;;;12.30;;
2011;SDS011;1009;51.436;6.972;2023-08-17T08:06:34;21.90;;;13.20;;
2011;SDS011;1009;51.436;6.972;2023-08-17T08:09:01;27.20;;;16.77;;
2011;SDS011;1009;51.436;6.972;2023-08-17T08:11:27;24.90;;;14.50;;
2011;SDS011;1009;51.436;6.972;2023-08-17T08:13:57;23.73;;;13.90;;
2011;SDS011;1009;51.436;6.972;2023-08-17T08:16:23;22.07;;;13.80;;
2011;SDS011;1009;51.436;6.972;2023-08-17T08:18:50;21.00;;;12.70;;
2011;SDS011;1009;51.436;6.972;2023-08-17T08:21:17;21.47;;;14.03;;
2011;SDS011;1009;51.436;6.972;2023-08-17T08:23:44;14.90;;;10.93;;
2011;SDS011;1009;51.436;6.972;2023-08-17T08:26:10;21.80;;;13.53;;
2011;SDS011;1009;51.436;6.972;2023-08-17T08:28:37;21.80;;;13.37;;
2011;SDS011;1009;51.436;6.972;2023-08-17T08:31:07;28.17;;;15.70;;
2011;SDS011;1009;51.436;6.972;2023-08-17T08:33:33;27.00;;;15.50;;
2011;SDS011;1009;51.436;6.972;2023-08-17T08:36:00;31.43;;;16.90;;
2011;SDS011;1009;51.436;6.972;2023-08-17T08:38:27;26.60;;;14.97;;
2011;SDS011;1009;51.436;6.972;2023-08-17T08:40:54;30.53;;;16.33;;
2011;SDS011;1009;51.436;6.972;2023-08-17T08:43:21;26.47;;;16.07;;
2011;SDS011;1009;51.436;6.972;2023-08-17T08:45:47;27.87;;;15.60;;
2011;SDS011;1009;51.436;6.972;2023-08-17T08:48:17;27.07;;;16.50;;
2011;SDS011;1009;51.436;6.972;2023-08-17T08:50:45;25.87;;;15.70;;
2011;SDS011;1009;51.436;6.972;2023-08-17T08:53:14;29.33;;;15.50;;
2011;SDS011;1009;51.436;6.972;2023-08-17T08:55:42;26.90;;;15.33;;
2011;SDS011;1009;51.436;6.972;2023-08-17T08:58:14;23.40;;;15.30;;
2011;SDS011;1009;51.436;6.972;2023-08-17T09:00:42;27.20;;;17.03;;
2011;SDS011;1009;51.436;6.972;2023-08-17T09:03:11;21.03;;;13.80;;
2011;SDS011;1009;51.436;6.972;2023-08-17T09:05:40;18.17;;;13.63;;
2011;SDS011;1009;51.436;6.972;2023-08-17T09:08:08;20.10;;;13.60;;
2011;SDS011;1009;51.436;6.972;2023-08-17T09:10:36;22.60;;;15.23;;
2011;SDS011;1009;51.436;6.972;2023-08-17T09:13:04;19.93;;;14.50;;
2011;SDS011;1009;51.436;6.972;2023-08-17T09:15:31;25.00;;;16.60;;
2011;SDS011;1009;51.436;6.972;2023-08-17T09:17:58;18.53;;;13.20;;
2011;SDS011;1009;51.436;6.972;2023-08-17T09:20:37;18.17;;;14.13;;
2011;SDS011;1009;51.436;6.972;2023-08-17T09:23:10;19.00;;;13.70;;
2011;SDS011;1009;51.436;6.972;2023-08-17T09:25:39;25.10;;;15.03;;
2011;SDS011;1009;51.436;6.972;2023-08-17T09:28:07;20.53;;;13.50;;
2011;SDS011;1009;51.436;6.972;2023-08-17T09:30:48;20.00;;;13.27;;
2011;SDS011;1009;51.436;6.972;2023-08-17T09:33:17;21.87;;;14.50;;
2011;SDS011;1009;51.436;6.972;2023-08-17T09:35:44;20.40;;;12.87;;
2011;SDS011;1009;51.436;6.972;2023-08-17T09:38:12;20.67;;;14.47;;
2011;SDS011;1009;51.436;6.972;2023-08-17T09:40:39;18.20;;;11.87;;
2011;SDS011;1009;51.436;6.972;2023-08-17T09:43:06;22.83;;;14.67;;
2011;SDS011;1009;51.436;6.972;2023-08-17T09:45:35;22.57;;;13.43;;
2011;SDS011;1009;51.436;6.972;2023-08-17T09:48:03;26.10;;;12.27;;
2011;SDS011;1009;51.436;6.972;2023-08-17T09:50:30;24.87;;;13.50;;
2011;SDS011;1009;51.436;6.972;2023-08-17T09:52:58;22.40;;;13.63;;
2011;SDS011;1009;51.436;6.972;2023-08-17T09:55:26;25.20;;;12.87;;
2011;SDS011;1009;51.436;6.972;2023-08-17T09:57:52;26.67;;;16.80;;
2011;SDS011;1009;51.436;6.972;2023-08-17T10:00:20;28.90;;;15.23;;
2011;SDS011;1009;51.436;6.972;2023-08-17T10:02:48;20.37;;;13.77;;
2011;SDS011;1009;51.436;6.972;2023-08-17T10:05:17;17.77;;;13.20;;
2011;SDS011;1009;51.436;6.972;2023-08-17T10:07:46;19.97;;;11.97;;
2011;SDS011;1009;51.436;6.972;2023-08-17T10:10:16;24.80;;;12.77;;
2011;SDS011;1009;51.436;6.972;2023-08-17T10:12:53;24.73;;;13.60;;
2011;SDS011;1009;51.436;6.972;2023-08-17T10:15:29;20.90;;;14.03;;
2011;SDS011;1009;51.436;6.972;2023-08-17T10:17:58;20.87;;;15.53;;
2011;SDS011;1009;51.436;6.972;2023-08-17T10:20:35;22.23;;;13.63;;
2011;SDS011;1009;51.436;6.972;2023-08-17T10:23:07;19.40;;;13.03;;
2011;SDS011;1009;51.436;6.972;2023-08-17T10:25:40;29.40;;;19.90;;
2011;SDS011;1009;51.436;6.972;2023-08-17T10:28:11;33.50;;;18.23;;
2011;SDS011;1009;51.436;6.972;2023-08-17T10:30:39;21.10;;;14.83;;
2011;SDS011;1009;51.436;6.972;2023-08-17T10:33:05;24.53;;;13.20;;
2011;SDS011;1009;51.436;6.972;2023-08-17T10:35:33;17.53;;;11.83;;
2011;SDS011;1009;51.436;6.972;2023-08-17T10:38:01;17.60;;;11.70;;
2011;SDS011;1009;51.436;6.972;2023-08-17T10:40:34;23.07;;;14.83;;
2011;SDS011;1009;51.436;6.972;2023-08-17T10:43:02;16.73;;;11.40;;
2011;SDS011;1009;51.436;6.972;2023-08-17T10:45:31;27.03;;;13.63;;
2011;SDS011;1009;51.436;6.972;2023-08-17T10:48:00;18.63;;;13.07;;
2011;SDS011;1009;51.436;6.972;2023-08-17T10:50:58;17.80;;;11.90;;
2011;SDS011;1009;51.436;6.972;2023-08-17T10:53:26;17.87;;;11.90;;
2011;SDS011;1009;51.436;6.972;2023-08-17T10:55:56;11.83;;;9.57;;
2011;SDS011;1009;51.436;6.972;2023-08-17T10:58:23;19.17;;;11.07;;
2011;SDS011;1009;51.436;6.972;2023-08-17T11:00:55;18.60;;;12.00;;
2011;SDS011;1009;51.436;6.972;2023-08-17T11:03:21;10.60;;;9.23;;
2011;SDS011;1009;51.436;6.972;2023-08-17T11:05:50;14.17;;;10.07;;
2011;SDS011;1009;51.436;6.972;2023-08-17T11:08:22;17.03;;;12.10;;
2011;SDS011;1009;51.436;6.972;2023-08-17T11:10:56;17.73;;;11.83;;
2011;SDS011;1009;51.436;6.972;2023-08-17T11:13:24;16.37;;;11.50;;
2011;SDS011;1009;51.436;6.972;2023-08-17T11:15:54;14.40;;;10.10;;
2011;SDS011;1009;51.436;6.972;2023-08-17T11:18:21;16.90;;;11.00;;
2011;SDS011;1009;51.436;6.972;2023-08-17T11:20:48;15.30;;;11.57;;
2011;SDS011;1009;51.436;6.972;2023-08-17T11:23:16;16.27;;;10.80;;
2011;SDS011;1009;51.436;6.972;2023-08-17T11:25:44;14.67;;;12.13;;
2011;SDS011;1009;51.436;6.972;2023-08-17T11:28:11;20.53;;;12.60;;
2011;SDS011;1009;51.436;6.972;2023-08-17T11:30:39;15.00;;;10.50;;
2011;SDS011;1009;51.436;6.972;2023-08-17T11:33:09;17.20;;;12.70;;
2011;SDS011;1009;51.436;6.972;2023-08-17T11:35:36;16.47;;;11.30;;
2011;SDS011;1009;51.436;6.972;2023-08-17T11:38:04;16.07;;;12.40;;
2011;SDS011;1009;51.436;6.972;2023-08-17T11:40:31;17.00;;;13.30;;
2011;SDS011;1009;51.436;6.972;2023-08-17T11:42:59;18.23;;;12.63;;
2011;SDS011;1009;51.436;6.972;2023-08-17T11:45:26;18.30;;;12.93;;
2011;SDS011;1009;51.436;6.972;2023-08-17T11:47:53;15.43;;;11.63;;
2011;SDS011;1009;51.436;6.972;2023-08-17T11:50:21;19.40;;;13.67;;
2011;SDS011;1009;51.436;6.972;2023-08-17T11:52:48;26.13;;;14.40;;
2011;SDS011;1009;51.436;6.972;2023-08-17T11:55:15;24.43;;;15.07;;
2011;SDS011;1009;51.436;6.972;2023-08-17T11:57:44;22.23;;;14.83;;
2011;SDS011;1009;51.436;6.972;2023-08-17T12:00:16;26.80;;;17.03;;
2011;SDS011;1009;51.436;6.972;2023-08-17T12:02:46;30.83;;;18.13;;
2011;SDS011;1009;51.436;6.972;2023-08-17T12:05:18;31.30;;;15.47;;
2011;SDS011;1009;51.436;6.972;2023-08-17T12:07:48;21.23;;;14.73;;
2011;SDS011;1009;51.436;6.972;2023-08-17T12:10:15;26.20;;;17.43;;
2011;SDS011;1009;51.436;6.972;2023-08-17T12:12:43;28.67;;;15.93;;
2011;SDS011;1009;51.436;6.972;2023-08-17T12:15:10;26.63;;;16.73;;
2011;SDS011;1009;51.436;6.972;2023-08-17T12:17:40;30.47;;;16.33;;
2011;SDS011;1009;51.436;6.972;2023-08-17T12:20:14;21.97;;;14.47;;
2011;SDS011;1009;51.436;6.972;2023-08-17T12:22:43;22.00;;;15.57;;
2011;SDS011;1009;51.436;6.972;2023-08-17T12:25:10;28.00;;;14.60;;
2011;SDS011;1009;51.436;6.972;2023-08-17T12:27:37;19.90;;;13.17;;
2011;SDS011;1009;51.436;6.972;2023-08-17T12:30:05;23.47;;;14.50;;
2011;SDS011;1009;51.436;6.972;2023-08-17T12:32:38;19.20;;;13.13;;
2011;SDS011;1009;51.436;6.972;2023-08-17T12:35:05;27.00;;;14.60;;
2011;SDS011;1009;51.436;6.972;2023-08-17T12:37:33;23.77;;;13.93;;
2011;SDS011;1009;51.436;6.972;2023-08-17T12:40:01;20.03;;;12.87;;
2011;SDS011;1009;51.436;6.972;2023-08-17T12:42:28;26.40;;;14.20;;
2011;SDS011;1009;51.436;6.972;2023-08-17T12:44:55;20.83;;;13.43;;
2011;SDS011;1009;51.436;6.972;2023-08-17T12:47:22;21.27;;;13.77;;
2011;SDS011;1009;51.436;6.972;2023-08-17T12:49:49;22.10;;;13.93;;
2011;SDS011;1009;51.436;6.972;2023-08-17T12:52:16;23.03;;;14.37;;
2011;SDS011;1009;51.436;6.972;2023-08-17T12:54:42;22.47;;;14.70;;
2011;SDS011;1009;51.436;6.972;2023-08-17T12:57:10;24.60;;;15.63;;
2011;SDS011;1009;51.436;6.972;2023-08-17T12:59:37;27.70;;;15.60;;
2011;SDS011;1009;51.436;6.972;2023-08-17T13:02:04;22.97;;;14.33;;
2011;SDS011;1009;51.436;6.972;2023-08-17T13:04:32;21.53;;;15.00;;
2011;SDS011;1009;51.436;6.972;2023-08-17T13:06:58;28.07;;;17.37;;
2011;SDS011;1009;51.436;6.972;2023-08-17T13:09:25;24.03;;;15.50;;
2011;SDS011;1009;51.436;6.972;2023-08-17T13:11:52;25.17;;;16.27;;
2011;SDS011;1009;51.436;6.972;2023-08-17T13:14:20;27.00;;;17.57;;
2011;SDS011;1009;51.436;6.972;2023-08-17T13:16:47;24.50;;;15.03;;
2011;SDS011;1009;51.436;6.972;2023-08-17T13:19:14;21.70;;;16.60;;
2011;SDS011;1009;51.436;6.972;2023-08-17T13:21:41;34.83;;;17.23;;
2011;SDS011;1009;51.436;6.972;2023-08-17T13:24:08;28.50;;;16.60;;
2011;SDS011;1009;51.436;6.972;2023-08-17T13:26:37;27.57;;;16.30;;
2011;SDS011;1009;51.436;6.972;2023-08-17T13:29:03;29.90;;;17.63;;
2011;SDS011;1009;51.436;6.972;2023-08-17T13:31:32;34.67;;;16.80;;
2011;SDS011;1009;51.436;6.972;2023-08-17T13:33:58;24.60;;;15.60;;
2011;SDS011;1009;51.436;6.972;2023-08-17T13:36:25;29.03;;;18.00;;
2011;SDS011;1009;51.436;6.972;2023-08-17T13:38:53;27.47;;;16.13;;
2011;SDS011;1009;51.436;6.972;2023-08-17T13:41:23;23.63;;;14.67;;
2011;SDS011;1009;51.436;6.972;2023-08-17T13:43:50;24.93;;;14.93;;
2011;SDS011;1009;51.436;6.972;2023-08-17T13:46:17;26.17;;;15.60;;
2011;SDS011;1009;51.436;6.972;2023-08-17T13:48:45;24.20;;;15.90;;
2011;SDS011;1009;51.436;6.972;2023-08-17T13:51:12;25.33;;;16.80;;
2011;SDS011;1009;51.436;6.972;2023-08-17T13:53:39;24.17;;;14.67;;
2011;SDS011;1009;51.436;6.972;2023-08-17T13:56:06;23.53;;;16.20;;
2011;SDS011;1009;51.436;6.972;2023-08-17T13:58:34;19.30;;;13.17;;
2011;SDS011;1009;51.436;6.972;2023-08-17T14:01:01;24.03;;;14.47;;
2011;SDS011;1009;51.436;6.972;2023-08-17T14:03:27;22.77;;;14.57;;
2011;SDS011;1009;51.436;6.972;2023-08-17T14:05:56;22.40;;;14.10;;
2011;SDS011;1009;51.436;6.972;2023-08-17T14:08:23;22.93;;;14.73;;
2011;SDS011;1009;51.436;6.972;2023-08-17T14:10:49;22.33;;;13.93;;
2011;SDS011;1009;51.436;6.972;2023-08-17T14:13:16;19.80;;;13.50;;
2011;SDS011;1009;51.436;6.972;2023-08-17T14:15:43;23.77;;;14.33;;
2011;SDS011;1009;51.436;6.972;2023-08-17T14:18:10;19.00;;;13.80;;
2011;SDS011;1009;51.436;6.972;2023-08-17T14:20:36;17.07;;;12.37;;
2011;SDS011;1009;51.436;6.972;2023-08-17T14:23:05;21.20;;;13.00;;
2011;SDS011;1009;51.436;6.972;2023-08-17T14:25:32;18.10;;;12.03;;
2011;SDS011;1009;51.436;6.972;2023-08-17T14:27:58;16.20;;;11.67;;
2011;SDS011;1009;51.436;6.972;2023-08-17T14:30:25;17.73;;;12.37;;
2011;SDS011;1009;51.436;6.972;2023-08-17T14:32:52;20.00;;;13.67;;
2011;SDS011;1009;51.436;6.972;2023-08-17T14:35:19;17.90;;;11.47;;
2011;SDS011;1009;51.436;6.972;2023-08-17T14:37:45;20.07;;;12.07;;
2011;SDS011;1009;51.436;6.972;2023-08-17T14:40:13;16.17;;;11.30;;
2011;SDS011;1009;51.436;6.972;2023-08-17T14:42:42;17.27;;;11.93;;
2011;SDS011;1009;51.436;6.972;2023-08-17T14:45:09;16.57;;;10.00;;
2011;SDS011;1009;51.436;6.972;2023-08-17T14:47:37;14.73;;;11.10;;
2011;SDS011;1009;51.436;6.972;2023-08-17T14:50:07;14.67;;;10.70;;
2011;SDS011;1009;51.436;6.972;2023-08-17T14:52:34;14.07;;;11.00;;
2011;SDS011;1009;51.436;6.972;2023-08-17T14:55:01;17.73;;;11.87;;
2011;SDS011;1009;51.436;6.972;2023-08-17T14:57:30;15.70;;;11.57;;
2011;SDS011;1009;51.436;6.972;2023-08-17T14:59:57;19.70;;;12.70;;